sensor_id;sensor_type;location;lat;lon;timestamp;P1;durP1;ratioP1;P2;durP2;ratioP2
15331;SDS011;7766;51.534;6.722;2023-08-20T00:00:14;6.63;;;3.72;;
15331;SDS011;7766;51.534;6.722;2023-08-20T00:01:15;12.57;;;4.38;;
15331;SDS011;7766;51.534;6.722;2023-08-20T00:02:21;9.82;;;4.10;;
15331;SDS011;7766;51.534;6.722;2023-08-20T00:03:25;6.57;;;4.15;;
15331;SDS011;7766;51.534;6.722;2023-08-20T00:04:26;10.80;;;3.65;;
15331;SDS011;7766;51.534;6.722;2023-08-20T00:05:28;7.10;;;4.18;;
15331;SDS011;7766;51.534;6.722;2023-08-20T00:06:32;6.72;;;3.67;;
15331;SDS011;7766;51.534;6.722;2023-08-20T00:07:33;9.65;;;4.43;;
15331;SDS011;7766;51.534;6.722;2023-08-20T00:08:34;6.80;;;3.78;;
15331;SDS011;7766;51.534;6.722;2023-08-20T00:09:36;5.65;;;3.70;;
15331;SDS011;7766;51.534;6.722;2023-08-20T00:10:37;9.80;;;3.95;;
15331;SDS011;7766;51.534;6.722;2023-08-20T00:11:38;8.48;;;4.13;;
15331;SDS011;7766;51.534;6.722;2023-08-20T00:12:39;4.28;;;3.50;;
15331;SDS011;7766;51.534;6.722;2023-08-20T00:13:40;6.65;;;4.18;;
15331;SDS011;7766;51.534;6.722;2023-08-20T00:14:51;7.07;;;3.80;;
15331;SDS011;7766;51.534;6.722;2023-08-20T00:15:54;10.98;;;4.18;;
15331;SDS011;7766;51.534;6.722;2023-08-20T00:16:55;6.28;;;4.15;;
15331;SDS011;7766;51.534;6.722;2023-08-20T00:17:57;6.15;;;4.18;;
15331;SDS011;7766;51.534;6.722;2023-08-20T00:18:58;9.10;;;3.97;;
15331;SDS011;7766;51.534;6.722;2023-08-20T00:19:59;5.18;;;3.83;;
15331;SDS011;7766;51.534;6.722;2023-08-20T00:21:01;4.75;;;3.60;;
15331;SDS011;7766;51.534;6.722;2023-08-20T00:22:02;6.70;;;4.10;;
15331;SDS011;7766;51.534;6.722;2023-08-20T00:23:04;6.68;;;3.83;;
15331;SDS011;7766;51.534;6.722;2023-08-20T00:24:05;9.10;;;3.78;;
15331;SDS011;7766;51.534;6.722;2023-08-20T00:25:08;6.28;;;3.97;;
15331;SDS011;7766;51.534;6.722;2023-08-20T00:26:09;7.25;;;4.05;;
15331;SDS011;7766;51.534;6.722;2023-08-20T00:27:11;6.18;;;3.97;;
15331;SDS011;7766;51.534;6.722;2023-08-20T00:28:12;6.35;;;3.72;;
15331;SDS011;7766;51.534;6.722;2023-08-20T00:29:13;6.25;;;3.90;;
15331;SDS011;7766;51.534;6.722;2023-08-20T00:30:14;7.30;;;4.45;;
15331;SDS011;7766;51.534;6.722;2023-08-20T00:31:15;5.30;;;3.67;;
15331;SDS011;7766;51.534;6.722;2023-08-20T00:32:17;6.78;;;4.20;;
15331;SDS011;7766;51.534;6.722;2023-08-20T00:33:18;11.63;;;4.38;;
15331;SDS011;7766;51.534;6.722;2023-08-20T00:34:19;5.97;;;4.10;;
15331;SDS011;7766;51.534;6.722;2023-08-20T00:35:20;9.82;;;3.78;;
15331;SDS011;7766;51.534;6.722;2023-08-20T00:36:21;6.68;;;3.42;;
15331;SDS011;7766;51.534;6.722;2023-08-20T00:37:24;7.43;;;3.75;;
15331;SDS011;7766;51.534;6.722;2023-08-20T00:38:26;4.15;;;3.70;;
15331;SDS011;7766;51.534;6.722;2023-08-20T00:39:27;7.13;;;3.47;;
15331;SDS011;7766;51.534;6.722;2023-08-20T00:40:28;9.43;;;3.75;;
15331;SDS011;7766;51.534;6.722;2023-08-20T00:41:30;6.55;;;3.50;;
15331;SDS011;7766;51.534;6.722;2023-08-20T00:42:31;5.38;;;3.88;;
15331;SDS011;7766;51.534;6.722;2023-08-20T00:43:32;5.28;;;3.40;;
15331;SDS011;7766;51.534;6.722;2023-08-20T00:44:33;5.45;;;3.45;;
15331;SDS011;7766;51.534;6.722;2023-08-20T00:45:35;7.18;;;3.40;;
15331;SDS011;7766;51.534;6.722;2023-08-20T00:46:36;5.20;;;3.30;;
15331;SDS011;7766;51.534;6.722;2023-08-20T00:47:38;8.77;;;3.83;;
15331;SDS011;7766;51.534;6.722;2023-08-20T00:48:40;4.80;;;3.33;;
15331;SDS011;7766;51.534;6.722;2023-08-20T00:49:41;6.28;;;3.60;;
15331;SDS011;7766;51.534;6.722;2023-08-20T00:50:42;5.50;;;3.58;;
15331;SDS011;7766;51.534;6.722;2023-08-20T00:51:43;3.97;;;3.20;;
15331;SDS011;7766;51.534;6.722;2023-08-20T00:52:45;5.15;;;3.33;;
15331;SDS011;7766;51.534;6.722;2023-08-20T00:53:46;4.30;;;3.90;;
15331;SDS011;7766;51.534;6.722;2023-08-20T00:54:49;8.07;;;3.45;;
15331;SDS011;7766;51.534;6.722;2023-08-20T00:55:51;8.93;;;3.15;;
15331;SDS011;7766;51.534;6.722;2023-08-20T00:56:52;4.20;;;3.53;;
15331;SDS011;7766;51.534;6.722;2023-08-20T00:57:53;4.72;;;3.40;;
15331;SDS011;7766;51.534;6.722;2023-08-20T00:58:55;9.88;;;3.72;;
15331;SDS011;7766;51.534;6.722;2023-08-20T00:59:56;6.70;;;3.50;;
15331;SDS011;7766;51.534;6.722;2023-08-20T01:00:58;7.28;;;3.80;;
15331;SDS011;7766;51.534;6.722;2023-08-20T01:01:59;5.68;;;3.40;;
15331;SDS011;7766;51.534;6.722;2023-08-20T01:03:01;8.00;;;4.00;;
15331;SDS011;7766;51.534;6.722;2023-08-20T01:04:02;7.72;;;3.30;;
15331;SDS011;7766;51.534;6.722;2023-08-20T01:05:03;9.57;;;3.90;;
15331;SDS011;7766;51.534;6.722;2023-08-20T01:06:42;5.13;;;3.55;;
15331;SDS011;7766;51.534;6.722;2023-08-20T01:09:07;6.10;;;3.15;;
15331;SDS011;7766;51.534;6.722;2023-08-20T01:11:29;8.70;;;3.75;;
15331;SDS011;7766;51.534;6.722;2023-08-20T01:12:37;7.35;;;4.05;;
15331;SDS011;7766;51.534;6.722;2023-08-20T01:13:40;7.00;;;3.97;;
15331;SDS011;7766;51.534;6.722;2023-08-20T01:14:41;9.35;;;4.30;;
15331;SDS011;7766;51.534;6.722;2023-08-20T01:15:42;5.30;;;4.03;;
15331;SDS011;7766;51.534;6.722;2023-08-20T01:16:43;5.25;;;3.75;;
15331;SDS011;7766;51.534;6.722;2023-08-20T01:17:45;11.63;;;4.45;;
15331;SDS011;7766;51.534;6.722;2023-08-20T01:18:48;6.72;;;3.97;;
15331;SDS011;7766;51.534;6.722;2023-08-20T01:19:49;7.40;;;4.45;;
15331;SDS011;7766;51.534;6.722;2023-08-20T01:20:51;7.80;;;4.45;;
15331;SDS011;7766;51.534;6.722;2023-08-20T01:23:24;7.13;;;4.25;;
15331;SDS011;7766;51.534;6.722;2023-08-20T01:27:19;6.68;;;4.10;;
15331;SDS011;7766;51.534;6.722;2023-08-20T01:28:31;5.30;;;4.07;;
15331;SDS011;7766;51.534;6.722;2023-08-20T01:29:32;6.18;;;4.15;;
15331;SDS011;7766;51.534;6.722;2023-08-20T01:30:33;7.28;;;4.28;;
15331;SDS011;7766;51.534;6.722;2023-08-20T01:31:35;8.48;;;4.15;;
15331;SDS011;7766;51.534;6.722;2023-08-20T01:32:36;9.30;;;3.72;;
15331;SDS011;7766;51.534;6.722;2023-08-20T01:33:41;6.00;;;4.22;;
15331;SDS011;7766;51.534;6.722;2023-08-20T01:34:43;7.50;;;4.25;;
15331;SDS011;7766;51.534;6.722;2023-08-20T01:35:45;5.85;;;4.43;;
15331;SDS011;7766;51.534;6.722;2023-08-20T01:36:46;6.93;;;4.18;;
15331;SDS011;7766;51.534;6.722;2023-08-20T01:37:47;4.70;;;3.33;;
15331;SDS011;7766;51.534;6.722;2023-08-20T01:38:48;8.20;;;4.25;;
15331;SDS011;7766;51.534;6.722;2023-08-20T01:39:49;5.57;;;4.00;;
15331;SDS011;7766;51.534;6.722;2023-08-20T01:40:50;5.47;;;3.78;;
15331;SDS011;7766;51.534;6.722;2023-08-20T01:41:51;4.25;;;3.83;;
15331;SDS011;7766;51.534;6.722;2023-08-20T01:42:52;9.65;;;3.97;;
15331;SDS011;7766;51.534;6.722;2023-08-20T01:43:53;8.02;;;4.00;;
15331;SDS011;7766;51.534;6.722;2023-08-20T01:44:54;4.03;;;3.55;;
15331;SDS011;7766;51.534;6.722;2023-08-20T01:45:55;6.05;;;3.75;;
15331;SDS011;7766;51.534;6.722;2023-08-20T01:46:56;4.85;;;4.00;;
15331;SDS011;7766;51.534;6.722;2023-08-20T01:47:57;5.30;;;4.13;;
15331;SDS011;7766;51.534;6.722;2023-08-20T01:48:58;5.93;;;3.72;;
15331;SDS011;7766;51.534;6.722;2023-08-20T01:49:59;5.35;;;4.18;;
15331;SDS011;7766;51.534;6.722;2023-08-20T01:51:01;5.65;;;3.53;;
15331;SDS011;7766;51.534;6.722;2023-08-20T01:52:02;6.50;;;3.85;;
15331;SDS011;7766;51.534;6.722;2023-08-20T01:53:03;7.55;;;4.00;;
15331;SDS011;7766;51.534;6.722;2023-08-20T01:54:04;8.07;;;3.83;;
15331;SDS011;7766;51.534;6.722;2023-08-20T01:55:06;7.00;;;3.97;;
15331;SDS011;7766;51.534;6.722;2023-08-20T01:56:11;9.25;;;4.60;;
15331;SDS011;7766;51.534;6.722;2023-08-20T01:57:13;6.65;;;4.40;;
15331;SDS011;7766;51.534;6.722;2023-08-20T01:58:14;10.32;;;4.00;;
15331;SDS011;7766;51.534;6.722;2023-08-20T01:59:15;7.25;;;4.32;;
15331;SDS011;7766;51.534;6.722;2023-08-20T02:00:16;7.57;;;4.13;;
15331;SDS011;7766;51.534;6.722;2023-08-20T02:01:17;7.72;;;4.38;;
15331;SDS011;7766;51.534;6.722;2023-08-20T02:02:18;6.57;;;3.90;;
15331;SDS011;7766;51.534;6.722;2023-08-20T02:03:19;4.57;;;4.00;;
15331;SDS011;7766;51.534;6.722;2023-08-20T02:04:20;4.78;;;3.88;;
15331;SDS011;7766;51.534;6.722;2023-08-20T02:05:21;5.13;;;3.80;;
15331;SDS011;7766;51.534;6.722;2023-08-20T02:06:22;4.72;;;3.80;;
15331;SDS011;7766;51.534;6.722;2023-08-20T02:07:23;5.72;;;4.05;;
15331;SDS011;7766;51.534;6.722;2023-08-20T02:08:24;5.63;;;3.90;;
15331;SDS011;7766;51.534;6.722;2023-08-20T02:09:25;6.57;;;4.45;;
15331;SDS011;7766;51.534;6.722;2023-08-20T02:10:26;7.75;;;4.53;;
15331;SDS011;7766;51.534;6.722;2023-08-20T02:11:27;7.47;;;4.43;;
15331;SDS011;7766;51.534;6.722;2023-08-20T02:12:29;9.32;;;4.47;;
15331;SDS011;7766;51.534;6.722;2023-08-20T02:13:31;4.82;;;4.32;;
15331;SDS011;7766;51.534;6.722;2023-08-20T02:14:32;6.68;;;4.20;;
15331;SDS011;7766;51.534;6.722;2023-08-20T02:15:34;8.18;;;4.20;;
15331;SDS011;7766;51.534;6.722;2023-08-20T02:16:35;10.05;;;5.00;;
15331;SDS011;7766;51.534;6.722;2023-08-20T02:17:36;8.43;;;4.40;;
15331;SDS011;7766;51.534;6.722;2023-08-20T02:18:38;7.25;;;4.65;;
15331;SDS011;7766;51.534;6.722;2023-08-20T02:19:39;6.93;;;4.75;;
15331;SDS011;7766;51.534;6.722;2023-08-20T02:20:42;6.72;;;4.60;;
15331;SDS011;7766;51.534;6.722;2023-08-20T02:21:43;7.47;;;4.70;;
15331;SDS011;7766;51.534;6.722;2023-08-20T02:22:44;8.48;;;5.57;;
15331;SDS011;7766;51.534;6.722;2023-08-20T02:23:45;10.50;;;5.70;;
15331;SDS011;7766;51.534;6.722;2023-08-20T02:24:46;9.93;;;6.18;;
15331;SDS011;7766;51.534;6.722;2023-08-20T02:25:48;8.38;;;6.28;;
15331;SDS011;7766;51.534;6.722;2023-08-20T02:26:49;7.85;;;6.43;;
15331;SDS011;7766;51.534;6.722;2023-08-20T02:27:50;7.75;;;6.05;;
15331;SDS011;7766;51.534;6.722;2023-08-20T02:28:51;8.90;;;6.05;;
15331;SDS011;7766;51.534;6.722;2023-08-20T02:29:52;8.48;;;5.55;;
15331;SDS011;7766;51.534;6.722;2023-08-20T02:30:53;8.68;;;6.13;;
15331;SDS011;7766;51.534;6.722;2023-08-20T02:31:54;8.02;;;6.10;;
15331;SDS011;7766;51.534;6.722;2023-08-20T02:32:55;8.05;;;6.18;;
15331;SDS011;7766;51.534;6.722;2023-08-20T02:33:56;10.15;;;6.30;;
15331;SDS011;7766;51.534;6.722;2023-08-20T02:34:57;7.13;;;5.25;;
15331;SDS011;7766;51.534;6.722;2023-08-20T02:36:02;6.22;;;5.00;;
15331;SDS011;7766;51.534;6.722;2023-08-20T02:37:03;7.88;;;4.88;;
15331;SDS011;7766;51.534;6.722;2023-08-20T02:38:05;9.10;;;5.28;;
15331;SDS011;7766;51.534;6.722;2023-08-20T02:39:06;8.30;;;5.28;;
15331;SDS011;7766;51.534;6.722;2023-08-20T02:40:07;6.68;;;4.93;;
15331;SDS011;7766;51.534;6.722;2023-08-20T02:41:10;7.13;;;5.15;;
15331;SDS011;7766;51.534;6.722;2023-08-20T02:42:12;7.20;;;5.20;;
15331;SDS011;7766;51.534;6.722;2023-08-20T02:43:13;9.00;;;5.43;;
15331;SDS011;7766;51.534;6.722;2023-08-20T02:44:14;7.00;;;5.05;;
15331;SDS011;7766;51.534;6.722;2023-08-20T02:45:15;8.48;;;5.50;;
15331;SDS011;7766;51.534;6.722;2023-08-20T02:46:16;6.53;;;5.50;;
15331;SDS011;7766;51.534;6.722;2023-08-20T02:47:17;7.35;;;5.32;;
15331;SDS011;7766;51.534;6.722;2023-08-20T02:48:17;7.00;;;5.22;;
15331;SDS011;7766;51.534;6.722;2023-08-20T02:49:19;8.68;;;5.45;;
15331;SDS011;7766;51.534;6.722;2023-08-20T02:50:20;7.97;;;4.95;;
15331;SDS011;7766;51.534;6.722;2023-08-20T02:51:21;8.73;;;4.95;;
15331;SDS011;7766;51.534;6.722;2023-08-20T02:52:22;5.90;;;4.72;;
15331;SDS011;7766;51.534;6.722;2023-08-20T02:53:23;8.88;;;5.15;;
15331;SDS011;7766;51.534;6.722;2023-08-20T02:54:24;6.88;;;4.88;;
15331;SDS011;7766;51.534;6.722;2023-08-20T02:55:26;6.00;;;5.40;;
15331;SDS011;7766;51.534;6.722;2023-08-20T02:56:26;8.45;;;5.57;;
15331;SDS011;7766;51.534;6.722;2023-08-20T02:57:27;7.63;;;5.25;;
15331;SDS011;7766;51.534;6.722;2023-08-20T02:58:28;9.80;;;5.03;;
15331;SDS011;7766;51.534;6.722;2023-08-20T02:59:29;8.18;;;5.10;;
15331;SDS011;7766;51.534;6.722;2023-08-20T03:00:30;8.43;;;4.82;;
15331;SDS011;7766;51.534;6.722;2023-08-20T03:01:31;6.70;;;5.05;;
15331;SDS011;7766;51.534;6.722;2023-08-20T03:02:32;6.15;;;4.97;;
15331;SDS011;7766;51.534;6.722;2023-08-20T03:03:33;8.85;;;4.55;;
15331;SDS011;7766;51.534;6.722;2023-08-20T03:04:34;7.85;;;5.32;;
15331;SDS011;7766;51.534;6.722;2023-08-20T03:05:35;6.45;;;4.82;;
15331;SDS011;7766;51.534;6.722;2023-08-20T03:06:37;6.05;;;4.65;;
15331;SDS011;7766;51.534;6.722;2023-08-20T03:07:38;8.02;;;5.22;;
15331;SDS011;7766;51.534;6.722;2023-08-20T03:08:39;6.38;;;5.03;;
15331;SDS011;7766;51.534;6.722;2023-08-20T03:09:40;7.93;;;5.13;;
15331;SDS011;7766;51.534;6.722;2023-08-20T03:10:41;9.57;;;5.47;;
15331;SDS011;7766;51.534;6.722;2023-08-20T03:11:42;5.55;;;4.28;;
15331;SDS011;7766;51.534;6.722;2023-08-20T03:12:43;10.63;;;5.07;;
15331;SDS011;7766;51.534;6.722;2023-08-20T03:13:44;6.70;;;4.70;;
15331;SDS011;7766;51.534;6.722;2023-08-20T03:14:45;8.75;;;4.75;;
15331;SDS011;7766;51.534;6.722;2023-08-20T03:15:46;9.27;;;4.93;;
15331;SDS011;7766;51.534;6.722;2023-08-20T03:16:47;8.07;;;4.78;;
15331;SDS011;7766;51.534;6.722;2023-08-20T03:17:48;9.65;;;5.40;;
15331;SDS011;7766;51.534;6.722;2023-08-20T03:18:49;7.35;;;4.85;;
15331;SDS011;7766;51.534;6.722;2023-08-20T03:19:54;5.22;;;4.70;;
15331;SDS011;7766;51.534;6.722;2023-08-20T03:20:56;6.45;;;3.95;;
15331;SDS011;7766;51.534;6.722;2023-08-20T03:21:57;8.13;;;4.78;;
15331;SDS011;7766;51.534;6.722;2023-08-20T03:22:58;7.53;;;4.43;;
15331;SDS011;7766;51.534;6.722;2023-08-20T03:23:59;8.57;;;4.47;;
15331;SDS011;7766;51.534;6.722;2023-08-20T03:25:00;8.25;;;4.03;;
15331;SDS011;7766;51.534;6.722;2023-08-20T03:26:01;8.15;;;4.72;;
15331;SDS011;7766;51.534;6.722;2023-08-20T03:27:02;5.97;;;4.30;;
15331;SDS011;7766;51.534;6.722;2023-08-20T03:28:03;9.23;;;4.60;;
15331;SDS011;7766;51.534;6.722;2023-08-20T03:29:05;5.45;;;4.10;;
15331;SDS011;7766;51.534;6.722;2023-08-20T03:30:06;11.60;;;4.47;;
15331;SDS011;7766;51.534;6.722;2023-08-20T03:31:07;7.43;;;4.47;;
15331;SDS011;7766;51.534;6.722;2023-08-20T03:32:08;6.13;;;4.13;;
15331;SDS011;7766;51.534;6.722;2023-08-20T03:33:09;8.70;;;4.45;;
15331;SDS011;7766;51.534;6.722;2023-08-20T03:34:10;9.25;;;4.40;;
15331;SDS011;7766;51.534;6.722;2023-08-20T03:35:11;8.38;;;4.45;;
15331;SDS011;7766;51.534;6.722;2023-08-20T03:36:12;5.00;;;4.50;;
15331;SDS011;7766;51.534;6.722;2023-08-20T03:37:13;8.40;;;4.65;;
15331;SDS011;7766;51.534;6.722;2023-08-20T03:38:14;6.45;;;4.20;;
15331;SDS011;7766;51.534;6.722;2023-08-20T03:39:15;5.78;;;4.30;;
15331;SDS011;7766;51.534;6.722;2023-08-20T03:40:16;10.13;;;4.65;;
15331;SDS011;7766;51.534;6.722;2023-08-20T03:41:18;6.85;;;4.60;;
15331;SDS011;7766;51.534;6.722;2023-08-20T03:42:19;8.05;;;4.93;;
15331;SDS011;7766;51.534;6.722;2023-08-20T03:43:20;6.25;;;4.55;;
15331;SDS011;7766;51.534;6.722;2023-08-20T03:44:21;4.60;;;3.90;;
15331;SDS011;7766;51.534;6.722;2023-08-20T03:45:22;7.90;;;5.00;;
15331;SDS011;7766;51.534;6.722;2023-08-20T03:46:23;8.63;;;5.50;;
15331;SDS011;7766;51.534;6.722;2023-08-20T03:47:24;6.60;;;4.97;;
15331;SDS011;7766;51.534;6.722;2023-08-20T03:48:25;11.32;;;5.18;;
15331;SDS011;7766;51.534;6.722;2023-08-20T03:49:26;6.03;;;5.10;;
15331;SDS011;7766;51.534;6.722;2023-08-20T03:50:27;8.70;;;5.13;;
15331;SDS011;7766;51.534;6.722;2023-08-20T03:51:28;7.10;;;4.87;;
15331;SDS011;7766;51.534;6.722;2023-08-20T03:52:29;8.83;;;5.40;;
15331;SDS011;7766;51.534;6.722;2023-08-20T03:53:31;11.67;;;5.93;;
15331;SDS011;7766;51.534;6.722;2023-08-20T03:54:32;9.52;;;5.50;;
15331;SDS011;7766;51.534;6.722;2023-08-20T03:55:34;6.73;;;5.30;;
15331;SDS011;7766;51.534;6.722;2023-08-20T03:56:35;6.20;;;5.07;;
15331;SDS011;7766;51.534;6.722;2023-08-20T03:57:36;8.67;;;5.43;;
15331;SDS011;7766;51.534;6.722;2023-08-20T03:58:37;9.00;;;5.63;;
15331;SDS011;7766;51.534;6.722;2023-08-20T03:59:38;10.03;;;5.90;;
15331;SDS011;7766;51.534;6.722;2023-08-20T04:00:39;8.47;;;4.93;;
15331;SDS011;7766;51.534;6.722;2023-08-20T04:01:40;9.40;;;4.70;;
15331;SDS011;7766;51.534;6.722;2023-08-20T04:02:41;9.07;;;5.07;;
15331;SDS011;7766;51.534;6.722;2023-08-20T04:03:42;7.83;;;4.90;;
15331;SDS011;7766;51.534;6.722;2023-08-20T04:04:45;7.70;;;4.43;;
15331;SDS011;7766;51.534;6.722;2023-08-20T04:05:46;6.13;;;4.47;;
15331;SDS011;7766;51.534;6.722;2023-08-20T04:06:49;6.77;;;4.53;;
15331;SDS011;7766;51.534;6.722;2023-08-20T04:07:50;5.40;;;4.07;;
15331;SDS011;7766;51.534;6.722;2023-08-20T04:08:50;6.47;;;4.65;;
15331;SDS011;7766;51.534;6.722;2023-08-20T04:09:51;8.63;;;4.93;;
15331;SDS011;7766;51.534;6.722;2023-08-20T04:10:53;6.63;;;5.00;;
15331;SDS011;7766;51.534;6.722;2023-08-20T04:11:54;7.77;;;5.03;;
15331;SDS011;7766;51.534;6.722;2023-08-20T04:12:55;7.67;;;5.17;;
15331;SDS011;7766;51.534;6.722;2023-08-20T04:13:56;11.37;;;5.07;;
15331;SDS011;7766;51.534;6.722;2023-08-20T04:14:57;8.03;;;4.90;;
15331;SDS011;7766;51.534;6.722;2023-08-20T04:15:58;6.07;;;4.77;;
15331;SDS011;7766;51.534;6.722;2023-08-20T04:16:59;9.63;;;4.63;;
15331;SDS011;7766;51.534;6.722;2023-08-20T04:18:00;9.03;;;4.53;;
15331;SDS011;7766;51.534;6.722;2023-08-20T04:19:01;6.17;;;4.57;;
15331;SDS011;7766;51.534;6.722;2023-08-20T04:20:02;7.80;;;4.70;;
15331;SDS011;7766;51.534;6.722;2023-08-20T04:21:07;6.90;;;4.83;;
15331;SDS011;7766;51.534;6.722;2023-08-20T04:22:08;6.70;;;5.23;;
15331;SDS011;7766;51.534;6.722;2023-08-20T04:23:09;6.23;;;4.67;;
15331;SDS011;7766;51.534;6.722;2023-08-20T04:24:10;8.47;;;4.50;;
15331;SDS011;7766;51.534;6.722;2023-08-20T04:25:11;6.93;;;5.60;;
15331;SDS011;7766;51.534;6.722;2023-08-20T04:26:12;11.20;;;5.67;;
15331;SDS011;7766;51.534;6.722;2023-08-20T04:27:13;9.37;;;5.30;;
15331;SDS011;7766;51.534;6.722;2023-08-20T04:28:14;9.33;;;5.27;;
15331;SDS011;7766;51.534;6.722;2023-08-20T04:29:15;6.27;;;4.77;;
15331;SDS011;7766;51.534;6.722;2023-08-20T04:30:16;9.20;;;5.07;;
15331;SDS011;7766;51.534;6.722;2023-08-20T04:31:17;6.27;;;4.97;;
15331;SDS011;7766;51.534;6.722;2023-08-20T04:32:18;6.37;;;4.60;;
15331;SDS011;7766;51.534;6.722;2023-08-20T04:33:19;7.50;;;5.40;;
15331;SDS011;7766;51.534;6.722;2023-08-20T04:34:21;8.23;;;5.28;;
15331;SDS011;7766;51.534;6.722;2023-08-20T04:35:21;7.47;;;5.40;;
15331;SDS011;7766;51.534;6.722;2023-08-20T04:36:22;6.63;;;4.97;;
15331;SDS011;7766;51.534;6.722;2023-08-20T04:37:23;9.75;;;5.85;;
15331;SDS011;7766;51.534;6.722;2023-08-20T04:38:24;6.10;;;5.50;;
15331;SDS011;7766;51.534;6.722;2023-08-20T04:39:26;9.95;;;5.15;;
15331;SDS011;7766;51.534;6.722;2023-08-20T04:40:27;8.73;;;5.22;;
15331;SDS011;7766;51.534;6.722;2023-08-20T04:41:28;7.67;;;5.20;;
15331;SDS011;7766;51.534;6.722;2023-08-20T04:42:29;6.67;;;5.30;;
15331;SDS011;7766;51.534;6.722;2023-08-20T04:43:31;9.93;;;5.43;;
15331;SDS011;7766;51.534;6.722;2023-08-20T04:44:32;11.10;;;5.97;;
15331;SDS011;7766;51.534;6.722;2023-08-20T04:45:33;6.93;;;5.05;;
15331;SDS011;7766;51.534;6.722;2023-08-20T04:46:34;5.55;;;5.05;;
15331;SDS011;7766;51.534;6.722;2023-08-20T04:47:35;6.53;;;5.70;;
15331;SDS011;7766;51.534;6.722;2023-08-20T04:48:35;8.35;;;5.30;;
15331;SDS011;7766;51.534;6.722;2023-08-20T04:49:36;9.15;;;5.63;;
15331;SDS011;7766;51.534;6.722;2023-08-20T04:50:37;9.37;;;5.13;;
15331;SDS011;7766;51.534;6.722;2023-08-20T04:51:38;7.30;;;5.72;;
15331;SDS011;7766;51.534;6.722;2023-08-20T04:52:39;8.40;;;5.43;;
15331;SDS011;7766;51.534;6.722;2023-08-20T04:53:40;7.70;;;5.10;;
15331;SDS011;7766;51.534;6.722;2023-08-20T04:54:41;8.77;;;5.00;;
15331;SDS011;7766;51.534;6.722;2023-08-20T04:55:42;8.23;;;5.10;;
15331;SDS011;7766;51.534;6.722;2023-08-20T04:56:43;8.07;;;5.40;;
15331;SDS011;7766;51.534;6.722;2023-08-20T04:57:44;6.50;;;5.30;;
15331;SDS011;7766;51.534;6.722;2023-08-20T04:58:45;8.97;;;5.33;;
15331;SDS011;7766;51.534;6.722;2023-08-20T04:59:46;9.90;;;5.23;;
15331;SDS011;7766;51.534;6.722;2023-08-20T05:00:47;13.35;;;5.57;;
15331;SDS011;7766;51.534;6.722;2023-08-20T05:01:48;9.75;;;5.70;;
15331;SDS011;7766;51.534;6.722;2023-08-20T05:02:49;6.57;;;5.63;;
15331;SDS011;7766;51.534;6.722;2023-08-20T05:03:50;8.75;;;6.55;;
15331;SDS011;7766;51.534;6.722;2023-08-20T05:04:51;8.77;;;5.57;;
15331;SDS011;7766;51.534;6.722;2023-08-20T05:05:52;8.00;;;5.60;;
15331;SDS011;7766;51.534;6.722;2023-08-20T05:06:53;8.48;;;6.30;;
15331;SDS011;7766;51.534;6.722;2023-08-20T05:07:54;10.00;;;5.73;;
15331;SDS011;7766;51.534;6.722;2023-08-20T05:08:55;10.63;;;6.37;;
15331;SDS011;7766;51.534;6.722;2023-08-20T05:09:56;6.60;;;5.68;;
15331;SDS011;7766;51.534;6.722;2023-08-20T05:10:57;8.57;;;6.57;;
15331;SDS011;7766;51.534;6.722;2023-08-20T05:11:58;11.80;;;6.85;;
15331;SDS011;7766;51.534;6.722;2023-08-20T05:12:59;10.23;;;6.60;;
15331;SDS011;7766;51.534;6.722;2023-08-20T05:14:00;7.35;;;6.30;;
15331;SDS011;7766;51.534;6.722;2023-08-20T05:15:01;9.25;;;6.78;;
15331;SDS011;7766;51.534;6.722;2023-08-20T05:16:03;8.55;;;7.10;;
15331;SDS011;7766;51.534;6.722;2023-08-20T05:17:04;10.80;;;6.80;;
15331;SDS011;7766;51.534;6.722;2023-08-20T05:18:05;8.18;;;6.78;;
15331;SDS011;7766;51.534;6.722;2023-08-20T05:19:06;8.85;;;6.65;;
15331;SDS011;7766;51.534;6.722;2023-08-20T05:20:07;11.00;;;6.20;;
15331;SDS011;7766;51.534;6.722;2023-08-20T05:21:09;7.15;;;5.40;;
15331;SDS011;7766;51.534;6.722;2023-08-20T05:22:13;7.15;;;5.45;;
15331;SDS011;7766;51.534;6.722;2023-08-20T05:23:14;10.77;;;6.32;;
15331;SDS011;7766;51.534;6.722;2023-08-20T05:24:15;9.32;;;6.20;;
15331;SDS011;7766;51.534;6.722;2023-08-20T05:25:16;9.02;;;5.93;;
15331;SDS011;7766;51.534;6.722;2023-08-20T05:26:17;10.13;;;6.75;;
15331;SDS011;7766;51.534;6.722;2023-08-20T05:27:18;7.13;;;5.57;;
15331;SDS011;7766;51.534;6.722;2023-08-20T05:28:19;8.18;;;5.70;;
15331;SDS011;7766;51.534;6.722;2023-08-20T05:29:20;6.97;;;5.95;;
15331;SDS011;7766;51.534;6.722;2023-08-20T05:30:20;8.23;;;5.68;;
15331;SDS011;7766;51.534;6.722;2023-08-20T05:31:21;6.47;;;5.25;;
15331;SDS011;7766;51.534;6.722;2023-08-20T05:32:22;7.40;;;5.80;;
15331;SDS011;7766;51.534;6.722;2023-08-20T05:33:23;7.40;;;5.25;;
15331;SDS011;7766;51.534;6.722;2023-08-20T05:34:24;8.20;;;6.60;;
15331;SDS011;7766;51.534;6.722;2023-08-20T05:35:25;7.78;;;6.10;;
15331;SDS011;7766;51.534;6.722;2023-08-20T05:36:26;7.55;;;5.68;;
15331;SDS011;7766;51.534;6.722;2023-08-20T05:37:27;8.88;;;6.10;;
15331;SDS011;7766;51.534;6.722;2023-08-20T05:38:29;8.00;;;5.72;;
15331;SDS011;7766;51.534;6.722;2023-08-20T05:39:35;7.72;;;6.60;;
15331;SDS011;7766;51.534;6.722;2023-08-20T05:40:38;10.70;;;7.32;;
15331;SDS011;7766;51.534;6.722;2023-08-20T05:41:39;9.90;;;7.13;;
15331;SDS011;7766;51.534;6.722;2023-08-20T05:42:40;11.35;;;7.50;;
15331;SDS011;7766;51.534;6.722;2023-08-20T05:43:41;12.52;;;8.10;;
15331;SDS011;7766;51.534;6.722;2023-08-20T05:44:42;12.60;;;7.10;;
15331;SDS011;7766;51.534;6.722;2023-08-20T05:45:43;8.68;;;6.82;;
15331;SDS011;7766;51.534;6.722;2023-08-20T05:46:44;9.85;;;7.22;;
15331;SDS011;7766;51.534;6.722;2023-08-20T05:47:45;10.40;;;7.18;;
15331;SDS011;7766;51.534;6.722;2023-08-20T05:48:46;9.88;;;7.53;;
15331;SDS011;7766;51.534;6.722;2023-08-20T05:49:47;10.48;;;6.78;;
15331;SDS011;7766;51.534;6.722;2023-08-20T05:50:48;8.65;;;6.80;;
15331;SDS011;7766;51.534;6.722;2023-08-20T05:51:49;9.43;;;7.20;;
15331;SDS011;7766;51.534;6.722;2023-08-20T05:52:50;9.30;;;7.45;;
15331;SDS011;7766;51.534;6.722;2023-08-20T05:53:52;11.63;;;8.13;;
15331;SDS011;7766;51.534;6.722;2023-08-20T05:54:53;9.43;;;7.55;;
15331;SDS011;7766;51.534;6.722;2023-08-20T05:55:54;14.73;;;8.27;;
15331;SDS011;7766;51.534;6.722;2023-08-20T05:56:56;10.63;;;7.97;;
15331;SDS011;7766;51.534;6.722;2023-08-20T05:57:58;13.70;;;7.85;;
15331;SDS011;7766;51.534;6.722;2023-08-20T05:58:58;11.48;;;7.75;;
15331;SDS011;7766;51.534;6.722;2023-08-20T05:59:59;11.40;;;7.93;;
15331;SDS011;7766;51.534;6.722;2023-08-20T06:01:00;11.45;;;8.13;;
15331;SDS011;7766;51.534;6.722;2023-08-20T06:02:01;12.75;;;8.57;;
15331;SDS011;7766;51.534;6.722;2023-08-20T06:03:02;13.63;;;8.25;;
15331;SDS011;7766;51.534;6.722;2023-08-20T06:04:04;13.57;;;8.20;;
15331;SDS011;7766;51.534;6.722;2023-08-20T06:05:05;11.18;;;8.82;;
15331;SDS011;7766;51.534;6.722;2023-08-20T06:06:06;12.73;;;8.57;;
15331;SDS011;7766;51.534;6.722;2023-08-20T06:07:07;12.00;;;9.43;;
15331;SDS011;7766;51.534;6.722;2023-08-20T06:08:08;11.98;;;8.68;;
15331;SDS011;7766;51.534;6.722;2023-08-20T06:09:09;13.13;;;8.32;;
15331;SDS011;7766;51.534;6.722;2023-08-20T06:10:10;10.25;;;8.10;;
15331;SDS011;7766;51.534;6.722;2023-08-20T06:11:11;11.32;;;8.80;;
15331;SDS011;7766;51.534;6.722;2023-08-20T06:12:12;13.52;;;9.27;;
15331;SDS011;7766;51.534;6.722;2023-08-20T06:13:13;13.05;;;8.50;;
15331;SDS011;7766;51.534;6.722;2023-08-20T06:14:14;13.23;;;8.63;;
15331;SDS011;7766;51.534;6.722;2023-08-20T06:15:16;14.30;;;8.00;;
15331;SDS011;7766;51.534;6.722;2023-08-20T06:16:17;13.77;;;8.73;;
15331;SDS011;7766;51.534;6.722;2023-08-20T06:17:18;13.48;;;9.13;;
15331;SDS011;7766;51.534;6.722;2023-08-20T06:18:19;10.13;;;8.48;;
15331;SDS011;7766;51.534;6.722;2023-08-20T06:19:20;11.77;;;8.50;;
15331;SDS011;7766;51.534;6.722;2023-08-20T06:20:21;13.57;;;9.07;;
15331;SDS011;7766;51.534;6.722;2023-08-20T06:21:22;19.08;;;9.40;;
15331;SDS011;7766;51.534;6.722;2023-08-20T06:22:23;14.52;;;8.65;;